sensor_id;sensor_type;location;lat;lon;timestamp;P1;durP1;ratioP1;P2;durP2;ratioP2
65759;SDS011;52496;51.082;5.066;2024-03-25T00:02:21;11.35;;;4.20;;
65759;SDS011;52496;51.082;5.066;2024-03-25T00:04:51;7.88;;;3.78;;
65759;SDS011;52496;51.082;5.066;2024-03-25T00:07:22;9.07;;;4.18;;
65759;SDS011;52496;51.082;5.066;2024-03-25T00:09:52;11.07;;;4.38;;
65759;SDS011;52496;51.082;5.066;2024-03-25T00:12:25;8.93;;;3.80;;
65759;SDS011;52496;51.082;5.066;2024-03-25T00:14:56;10.93;;;4.57;;
65759;SDS011;52496;51.082;5.066;2024-03-25T00:17:26;12.55;;;4.10;;
65759;SDS011;52496;51.082;5.066;2024-03-25T00:19:57;19.38;;;5.05;;
65759;SDS011;52496;51.082;5.066;2024-03-25T00:22:28;10.23;;;4.05;;
65759;SDS011;52496;51.082;5.066;2024-03-25T00:24:58;9.30;;;4.68;;
65759;SDS011;52496;51.082;5.066;2024-03-25T00:27:28;17.35;;;4.72;;
65759;SDS011;52496;51.082;5.066;2024-03-25T00:30:00;8.98;;;3.95;;
65759;SDS011;52496;51.082;5.066;2024-03-25T00:32:31;10.32;;;4.93;;
65759;SDS011;52496;51.082;5.066;2024-03-25T00:35:01;21.33;;;5.07;;
65759;SDS011;52496;51.082;5.066;2024-03-25T00:37:32;10.13;;;4.05;;
65759;SDS011;52496;51.082;5.066;2024-03-25T00:40:03;9.65;;;4.68;;
65759;SDS011;52496;51.082;5.066;2024-03-25T00:42:34;17.23;;;5.13;;
65759;SDS011;52496;51.082;5.066;2024-03-25T00:45:05;11.23;;;5.63;;
65759;SDS011;52496;51.082;5.066;2024-03-25T00:47:37;11.57;;;4.25;;
65759;SDS011;52496;51.082;5.066;2024-03-25T00:50:07;11.10;;;5.10;;
65759;SDS011;52496;51.082;5.066;2024-03-25T00:52:39;15.68;;;5.55;;
65759;SDS011;52496;51.082;5.066;2024-03-25T00:55:09;9.93;;;4.60;;
65759;SDS011;52496;51.082;5.066;2024-03-25T00:57:40;10.30;;;4.95;;
65759;SDS011;52496;51.082;5.066;2024-03-25T01:00:10;17.48;;;5.13;;
65759;SDS011;52496;51.082;5.066;2024-03-25T01:02:41;11.93;;;5.40;;
65759;SDS011;52496;51.082;5.066;2024-03-25T01:05:12;16.23;;;4.80;;
65759;SDS011;52496;51.082;5.066;2024-03-25T01:07:43;16.60;;;4.50;;
65759;SDS011;52496;51.082;5.066;2024-03-25T01:10:14;12.18;;;4.95;;
65759;SDS011;52496;51.082;5.066;2024-03-25T01:12:47;11.30;;;4.50;;
65759;SDS011;52496;51.082;5.066;2024-03-25T01:15:17;10.15;;;4.75;;
65759;SDS011;52496;51.082;5.066;2024-03-25T01:17:48;15.10;;;4.68;;
65759;SDS011;52496;51.082;5.066;2024-03-25T01:20:18;10.98;;;4.65;;
65759;SDS011;52496;51.082;5.066;2024-03-25T01:22:49;10.02;;;4.75;;
65759;SDS011;52496;51.082;5.066;2024-03-25T01:25:20;13.65;;;4.70;;
65759;SDS011;52496;51.082;5.066;2024-03-25T01:27:50;12.38;;;5.70;;
65759;SDS011;52496;51.082;5.066;2024-03-25T01:30:21;12.40;;;5.15;;
65759;SDS011;52496;51.082;5.066;2024-03-25T01:32:52;10.07;;;4.90;;
65759;SDS011;52496;51.082;5.066;2024-03-25T01:35:23;12.70;;;4.70;;
65759;SDS011;52496;51.082;5.066;2024-03-25T01:37:53;9.07;;;4.80;;
65759;SDS011;52496;51.082;5.066;2024-03-25T01:40:24;17.50;;;4.85;;
65759;SDS011;52496;51.082;5.066;2024-03-25T01:42:55;9.73;;;4.68;;
65759;SDS011;52496;51.082;5.066;2024-03-25T01:45:32;8.00;;;4.43;;
65759;SDS011;52496;51.082;5.066;2024-03-25T01:48:07;14.98;;;6.63;;
65759;SDS011;52496;51.082;5.066;2024-03-25T01:50:41;11.88;;;4.93;;
65759;SDS011;52496;51.082;5.066;2024-03-25T01:53:13;11.95;;;4.72;;
65759;SDS011;52496;51.082;5.066;2024-03-25T01:55:45;9.88;;;4.40;;
65759;SDS011;52496;51.082;5.066;2024-03-25T01:58:16;31.35;;;8.80;;
65759;SDS011;52496;51.082;5.066;2024-03-25T02:00:47;33.20;;;10.68;;
65759;SDS011;52496;51.082;5.066;2024-03-25T02:03:17;40.22;;;15.27;;
65759;SDS011;52496;51.082;5.066;2024-03-25T02:05:53;67.50;;;18.75;;
65759;SDS011;52496;51.082;5.066;2024-03-25T02:08:27;75.28;;;23.92;;
65759;SDS011;52496;51.082;5.066;2024-03-25T02:10:58;82.15;;;25.70;;
65759;SDS011;52496;51.082;5.066;2024-03-25T02:13:29;61.60;;;18.85;;
65759;SDS011;52496;51.082;5.066;2024-03-25T02:16:00;40.33;;;16.13;;
65759;SDS011;52496;51.082;5.066;2024-03-25T02:18:30;45.42;;;14.15;;
65759;SDS011;52496;51.082;5.066;2024-03-25T02:21:02;22.90;;;9.18;;
65759;SDS011;52496;51.082;5.066;2024-03-25T02:23:32;31.50;;;9.45;;
65759;SDS011;52496;51.082;5.066;2024-03-25T02:26:06;28.23;;;9.48;;
65759;SDS011;52496;51.082;5.066;2024-03-25T02:28:37;24.15;;;6.97;;
65759;SDS011;52496;51.082;5.066;2024-03-25T02:31:07;15.95;;;5.55;;
65759;SDS011;52496;51.082;5.066;2024-03-25T02:33:38;29.60;;;7.88;;
65759;SDS011;52496;51.082;5.066;2024-03-25T02:36:08;25.77;;;10.40;;
65759;SDS011;52496;51.082;5.066;2024-03-25T02:38:39;21.70;;;9.25;;
65759;SDS011;52496;51.082;5.066;2024-03-25T02:41:10;21.50;;;7.53;;
65759;SDS011;52496;51.082;5.066;2024-03-25T02:43:41;15.68;;;6.35;;
65759;SDS011;52496;51.082;5.066;2024-03-25T02:46:12;17.73;;;6.75;;
65759;SDS011;52496;51.082;5.066;2024-03-25T02:48:45;17.55;;;6.65;;
65759;SDS011;52496;51.082;5.066;2024-03-25T02:51:16;21.60;;;6.43;;
65759;SDS011;52496;51.082;5.066;2024-03-25T02:53:47;11.80;;;5.20;;
65759;SDS011;52496;51.082;5.066;2024-03-25T02:56:17;11.90;;;6.95;;
65759;SDS011;52496;51.082;5.066;2024-03-25T02:58:48;16.08;;;5.35;;
65759;SDS011;52496;51.082;5.066;2024-03-25T03:01:18;11.68;;;4.93;;
65759;SDS011;52496;51.082;5.066;2024-03-25T03:03:49;13.35;;;5.05;;
65759;SDS011;52496;51.082;5.066;2024-03-25T03:06:19;19.08;;;5.95;;
65759;SDS011;52496;51.082;5.066;2024-03-25T03:08:50;13.75;;;5.22;;
65759;SDS011;52496;51.082;5.066;2024-03-25T03:11:20;8.65;;;4.22;;
65759;SDS011;52496;51.082;5.066;2024-03-25T03:13:51;7.40;;;4.00;;
65759;SDS011;52496;51.082;5.066;2024-03-25T03:16:21;12.90;;;4.28;;
65759;SDS011;52496;51.082;5.066;2024-03-25T03:18:52;8.95;;;3.95;;
65759;SDS011;52496;51.082;5.066;2024-03-25T03:21:22;8.60;;;4.03;;
65759;SDS011;52496;51.082;5.066;2024-03-25T03:23:53;9.10;;;4.53;;
65759;SDS011;52496;51.082;5.066;2024-03-25T03:26:23;14.15;;;4.60;;
65759;SDS011;52496;51.082;5.066;2024-03-25T03:28:58;6.40;;;3.88;;
65759;SDS011;52496;51.082;5.066;2024-03-25T03:31:28;9.57;;;5.20;;
65759;SDS011;52496;51.082;5.066;2024-03-25T03:33:59;10.27;;;4.65;;
65759;SDS011;52496;51.082;5.066;2024-03-25T03:36:29;12.90;;;4.35;;
65759;SDS011;52496;51.082;5.066;2024-03-25T03:39:00;8.35;;;4.57;;
65759;SDS011;52496;51.082;5.066;2024-03-25T03:41:30;9.77;;;4.55;;
65759;SDS011;52496;51.082;5.066;2024-03-25T03:44:01;15.70;;;5.20;;
65759;SDS011;52496;51.082;5.066;2024-03-25T03:46:32;11.63;;;4.30;;
65759;SDS011;52496;51.082;5.066;2024-03-25T03:49:03;11.50;;;5.18;;
65759;SDS011;52496;51.082;5.066;2024-03-25T03:51:33;10.50;;;4.78;;
65759;SDS011;52496;51.082;5.066;2024-03-25T03:54:04;15.45;;;5.03;;
65759;SDS011;52496;51.082;5.066;2024-03-25T03:56:34;12.80;;;5.53;;
65759;SDS011;52496;51.082;5.066;2024-03-25T03:59:05;9.70;;;4.82;;
65759;SDS011;52496;51.082;5.066;2024-03-25T04:01:35;7.43;;;4.00;;
65759;SDS011;52496;51.082;5.066;2024-03-25T04:04:06;8.73;;;3.90;;
65759;SDS011;52496;51.082;5.066;2024-03-25T04:06:36;9.88;;;4.60;;
65759;SDS011;52496;51.082;5.066;2024-03-25T04:09:10;11.82;;;5.53;;
65759;SDS011;52496;51.082;5.066;2024-03-25T04:11:40;16.00;;;4.95;;
65759;SDS011;52496;51.082;5.066;2024-03-25T04:14:11;7.15;;;4.47;;
65759;SDS011;52496;51.082;5.066;2024-03-25T04:16:41;15.48;;;5.32;;
65759;SDS011;52496;51.082;5.066;2024-03-25T04:19:11;14.65;;;5.72;;
65759;SDS011;52496;51.082;5.066;2024-03-25T04:21:43;10.20;;;5.18;;
65759;SDS011;52496;51.082;5.066;2024-03-25T04:24:13;9.98;;;4.53;;
65759;SDS011;52496;51.082;5.066;2024-03-25T04:26:44;6.93;;;3.85;;
65759;SDS011;52496;51.082;5.066;2024-03-25T04:29:15;9.85;;;4.07;;
65759;SDS011;52496;51.082;5.066;2024-03-25T04:31:46;15.35;;;3.95;;
65759;SDS011;52496;51.082;5.066;2024-03-25T04:34:16;8.68;;;4.50;;
65759;SDS011;52496;51.082;5.066;2024-03-25T04:36:47;9.77;;;5.13;;
65759;SDS011;52496;51.082;5.066;2024-03-25T04:39:18;8.15;;;3.70;;
65759;SDS011;52496;51.082;5.066;2024-03-25T04:41:49;8.38;;;4.10;;
65759;SDS011;52496;51.082;5.066;2024-03-25T04:44:19;10.18;;;4.50;;
65759;SDS011;52496;51.082;5.066;2024-03-25T04:46:51;15.20;;;5.05;;
65759;SDS011;52496;51.082;5.066;2024-03-25T04:49:21;9.38;;;3.60;;
65759;SDS011;52496;51.082;5.066;2024-03-25T04:51:52;12.55;;;4.82;;
65759;SDS011;52496;51.082;5.066;2024-03-25T04:54:23;10.10;;;4.97;;
65759;SDS011;52496;51.082;5.066;2024-03-25T04:56:53;9.82;;;4.45;;
65759;SDS011;52496;51.082;5.066;2024-03-25T04:59:24;13.88;;;4.65;;
65759;SDS011;52496;51.082;5.066;2024-03-25T05:01:54;12.05;;;5.05;;
65759;SDS011;52496;51.082;5.066;2024-03-25T05:04:25;10.80;;;5.65;;
65759;SDS011;52496;51.082;5.066;2024-03-25T05:06:56;12.80;;;4.35;;
65759;SDS011;52496;51.082;5.066;2024-03-25T05:09:26;12.02;;;5.13;;
65759;SDS011;52496;51.082;5.066;2024-03-25T05:11:57;8.98;;;4.78;;
65759;SDS011;52496;51.082;5.066;2024-03-25T05:14:31;18.65;;;4.93;;
65759;SDS011;52496;51.082;5.066;2024-03-25T05:17:01;9.40;;;4.47;;
65759;SDS011;52496;51.082;5.066;2024-03-25T05:19:34;8.57;;;4.70;;
65759;SDS011;52496;51.082;5.066;2024-03-25T05:22:04;9.63;;;4.75;;
65759;SDS011;52496;51.082;5.066;2024-03-25T05:24:35;18.40;;;5.18;;
65759;SDS011;52496;51.082;5.066;2024-03-25T05:27:08;11.10;;;4.80;;
65759;SDS011;52496;51.082;5.066;2024-03-25T05:29:38;12.88;;;5.43;;
65759;SDS011;52496;51.082;5.066;2024-03-25T05:32:09;9.95;;;4.85;;
65759;SDS011;52496;51.082;5.066;2024-03-25T05:34:39;11.13;;;5.25;;
65759;SDS011;52496;51.082;5.066;2024-03-25T05:37:10;16.70;;;5.03;;
65759;SDS011;52496;51.082;5.066;2024-03-25T05:39:40;16.17;;;5.63;;
65759;SDS011;52496;51.082;5.066;2024-03-25T05:42:11;10.40;;;6.20;;
65759;SDS011;52496;51.082;5.066;2024-03-25T05:44:41;12.43;;;6.10;;
65759;SDS011;52496;51.082;5.066;2024-03-25T05:47:12;9.43;;;5.00;;
65759;SDS011;52496;51.082;5.066;2024-03-25T05:49:42;14.07;;;5.22;;
65759;SDS011;52496;51.082;5.066;2024-03-25T05:52:12;10.13;;;5.50;;
65759;SDS011;52496;51.082;5.066;2024-03-25T05:54:46;11.95;;;5.40;;
65759;SDS011;52496;51.082;5.066;2024-03-25T05:57:16;20.20;;;6.63;;
65759;SDS011;52496;51.082;5.066;2024-03-25T05:59:47;12.73;;;5.35;;
65759;SDS011;52496;51.082;5.066;2024-03-25T06:02:17;15.00;;;6.00;;
65759;SDS011;52496;51.082;5.066;2024-03-25T06:04:48;11.82;;;5.95;;
65759;SDS011;52496;51.082;5.066;2024-03-25T06:07:18;14.27;;;6.60;;
65759;SDS011;52496;51.082;5.066;2024-03-25T06:09:49;17.15;;;6.47;;
65759;SDS011;52496;51.082;5.066;2024-03-25T06:12:19;12.23;;;6.20;;
65759;SDS011;52496;51.082;5.066;2024-03-25T06:14:50;12.30;;;6.00;;
65759;SDS011;52496;51.082;5.066;2024-03-25T06:17:20;17.17;;;7.63;;
65759;SDS011;52496;51.082;5.066;2024-03-25T06:19:51;15.57;;;7.38;;
65759;SDS011;52496;51.082;5.066;2024-03-25T06:22:22;14.27;;;7.30;;
65759;SDS011;52496;51.082;5.066;2024-03-25T06:24:53;13.70;;;6.45;;
65759;SDS011;52496;51.082;5.066;2024-03-25T06:27:23;21.63;;;8.00;;
65759;SDS011;52496;51.082;5.066;2024-03-25T06:29:54;18.02;;;9.45;;
65759;SDS011;52496;51.082;5.066;2024-03-25T06:32:44;15.50;;;8.07;;
65759;SDS011;52496;51.082;5.066;2024-03-25T06:35:34;19.23;;;8.80;;
65759;SDS011;52496;51.082;5.066;2024-03-25T06:38:04;24.33;;;10.48;;
65759;SDS011;52496;51.082;5.066;2024-03-25T06:40:35;22.45;;;9.02;;
65759;SDS011;52496;51.082;5.066;2024-03-25T06:43:06;25.00;;;8.85;;
65759;SDS011;52496;51.082;5.066;2024-03-25T06:45:36;22.02;;;9.98;;
65759;SDS011;52496;51.082;5.066;2024-03-25T06:48:07;23.33;;;9.43;;
65759;SDS011;52496;51.082;5.066;2024-03-25T06:50:38;19.70;;;8.15;;
65759;SDS011;52496;51.082;5.066;2024-03-25T06:53:08;18.80;;;9.25;;
65759;SDS011;52496;51.082;5.066;2024-03-25T06:55:39;24.50;;;10.30;;
65759;SDS011;52496;51.082;5.066;2024-03-25T06:58:09;23.63;;;10.75;;
65759;SDS011;52496;51.082;5.066;2024-03-25T07:00:40;24.83;;;9.80;;
65759;SDS011;52496;51.082;5.066;2024-03-25T07:03:10;27.98;;;10.70;;
65759;SDS011;52496;51.082;5.066;2024-03-25T07:05:41;24.52;;;9.82;;
65759;SDS011;52496;51.082;5.066;2024-03-25T07:08:14;33.15;;;10.00;;
65759;SDS011;52496;51.082;5.066;2024-03-25T07:10:45;24.67;;;9.68;;
65759;SDS011;52496;51.082;5.066;2024-03-25T07:13:15;25.10;;;10.88;;
65759;SDS011;52496;51.082;5.066;2024-03-25T07:15:46;26.35;;;9.25;;
65759;SDS011;52496;51.082;5.066;2024-03-25T07:18:16;25.45;;;11.73;;
65759;SDS011;52496;51.082;5.066;2024-03-25T07:20:47;27.67;;;10.25;;
65759;SDS011;52496;51.082;5.066;2024-03-25T07:23:18;41.75;;;11.75;;
65759;SDS011;52496;51.082;5.066;2024-03-25T07:25:50;24.02;;;11.05;;
65759;SDS011;52496;51.082;5.066;2024-03-25T07:28:21;29.10;;;10.63;;
65759;SDS011;52496;51.082;5.066;2024-03-25T07:30:51;24.17;;;10.55;;
65759;SDS011;52496;51.082;5.066;2024-03-25T07:33:21;26.25;;;11.85;;
65759;SDS011;52496;51.082;5.066;2024-03-25T07:35:52;28.90;;;10.75;;
65759;SDS011;52496;51.082;5.066;2024-03-25T07:38:22;28.00;;;10.15;;
65759;SDS011;52496;51.082;5.066;2024-03-25T07:40:53;32.25;;;12.18;;
65759;SDS011;52496;51.082;5.066;2024-03-25T07:43:23;26.52;;;11.05;;
65759;SDS011;52496;51.082;5.066;2024-03-25T07:45:54;29.95;;;11.25;;
65759;SDS011;52496;51.082;5.066;2024-03-25T07:48:24;26.88;;;10.60;;
65759;SDS011;52496;51.082;5.066;2024-03-25T07:50:55;31.63;;;11.63;;
65759;SDS011;52496;51.082;5.066;2024-03-25T07:53:25;27.08;;;9.35;;
65759;SDS011;52496;51.082;5.066;2024-03-25T07:55:56;25.52;;;9.43;;
65759;SDS011;52496;51.082;5.066;2024-03-25T07:58:29;28.77;;;10.35;;
65759;SDS011;52496;51.082;5.066;2024-03-25T08:00:59;29.85;;;10.25;;
65759;SDS011;52496;51.082;5.066;2024-03-25T08:03:30;24.58;;;9.15;;
65759;SDS011;52496;51.082;5.066;2024-03-25T08:06:00;23.45;;;8.90;;
65759;SDS011;52496;51.082;5.066;2024-03-25T08:08:31;23.00;;;8.73;;
65759;SDS011;52496;51.082;5.066;2024-03-25T08:11:01;21.80;;;8.00;;
65759;SDS011;52496;51.082;5.066;2024-03-25T08:13:32;22.08;;;8.07;;
65759;SDS011;52496;51.082;5.066;2024-03-25T08:16:03;20.25;;;8.25;;
65759;SDS011;52496;51.082;5.066;2024-03-25T08:18:34;23.55;;;8.40;;
65759;SDS011;52496;51.082;5.066;2024-03-25T08:21:05;17.30;;;7.50;;
65759;SDS011;52496;51.082;5.066;2024-03-25T08:23:35;21.27;;;7.95;;
65759;SDS011;52496;51.082;5.066;2024-03-25T08:26:06;22.13;;;7.15;;
65759;SDS011;52496;51.082;5.066;2024-03-25T08:28:37;17.67;;;6.15;;
65759;SDS011;52496;51.082;5.066;2024-03-25T08:31:07;14.60;;;6.80;;
65759;SDS011;52496;51.082;5.066;2024-03-25T08:33:38;15.20;;;6.00;;
65759;SDS011;52496;51.082;5.066;2024-03-25T08:36:08;16.15;;;6.68;;
65759;SDS011;52496;51.082;5.066;2024-03-25T08:38:39;12.98;;;5.43;;
65759;SDS011;52496;51.082;5.066;2024-03-25T08:41:09;14.23;;;6.00;;
65759;SDS011;52496;51.082;5.066;2024-03-25T08:43:40;17.25;;;5.57;;
65759;SDS011;52496;51.082;5.066;2024-03-25T08:46:11;11.90;;;5.07;;
65759;SDS011;52496;51.082;5.066;2024-03-25T08:48:41;14.63;;;5.60;;
65759;SDS011;52496;51.082;5.066;2024-03-25T08:51:12;17.38;;;6.32;;
65759;SDS011;52496;51.082;5.066;2024-03-25T08:53:42;17.63;;;7.03;;
65759;SDS011;52496;51.082;5.066;2024-03-25T08:56:13;13.85;;;5.32;;
65759;SDS011;52496;51.082;5.066;2024-03-25T08:58:44;13.32;;;6.03;;
65759;SDS011;52496;51.082;5.066;2024-03-25T09:01:14;19.02;;;5.95;;
65759;SDS011;52496;51.082;5.066;2024-03-25T09:03:46;11.50;;;5.13;;
65759;SDS011;52496;51.082;5.066;2024-03-25T09:06:16;10.85;;;4.95;;
65759;SDS011;52496;51.082;5.066;2024-03-25T09:08:47;17.88;;;5.72;;
65759;SDS011;52496;51.082;5.066;2024-03-25T09:11:36;13.77;;;5.43;;
65759;SDS011;52496;51.082;5.066;2024-03-25T09:14:06;13.52;;;5.07;;
65759;SDS011;52496;51.082;5.066;2024-03-25T09:16:37;14.20;;;5.68;;
65759;SDS011;52496;51.082;5.066;2024-03-25T09:19:08;14.75;;;5.43;;
65759;SDS011;52496;51.082;5.066;2024-03-25T09:21:38;11.35;;;5.13;;
65759;SDS011;52496;51.082;5.066;2024-03-25T09:24:09;9.32;;;4.35;;
65759;SDS011;52496;51.082;5.066;2024-03-25T09:26:39;9.30;;;3.92;;
65759;SDS011;52496;51.082;5.066;2024-03-25T09:29:10;13.43;;;4.47;;
65759;SDS011;52496;51.082;5.066;2024-03-25T09:31:42;9.82;;;4.22;;
65759;SDS011;52496;51.082;5.066;2024-03-25T09:34:12;13.93;;;4.75;;
65759;SDS011;52496;51.082;5.066;2024-03-25T09:36:43;11.13;;;4.45;;
65759;SDS011;52496;51.082;5.066;2024-03-25T09:39:13;17.77;;;5.05;;
65759;SDS011;52496;51.082;5.066;2024-03-25T09:41:45;10.85;;;4.22;;
65759;SDS011;52496;51.082;5.066;2024-03-25T09:44:18;8.35;;;4.05;;
65759;SDS011;52496;51.082;5.066;2024-03-25T09:46:51;8.32;;;3.97;;
65759;SDS011;52496;51.082;5.066;2024-03-25T09:49:22;10.43;;;4.22;;
65759;SDS011;52496;51.082;5.066;2024-03-25T09:51:53;8.32;;;4.07;;
65759;SDS011;52496;51.082;5.066;2024-03-25T09:54:24;21.45;;;5.03;;
65759;SDS011;52496;51.082;5.066;2024-03-25T09:56:55;7.40;;;3.88;;
65759;SDS011;52496;51.082;5.066;2024-03-25T09:59:26;8.35;;;4.20;;
65759;SDS011;52496;51.082;5.066;2024-03-25T10:01:58;6.40;;;3.55;;
65759;SDS011;52496;51.082;5.066;2024-03-25T10:04:29;10.95;;;4.45;;
65759;SDS011;52496;51.082;5.066;2024-03-25T10:07:00;13.98;;;4.57;;
65759;SDS011;52496;51.082;5.066;2024-03-25T10:09:30;15.70;;;4.78;;
65759;SDS011;52496;51.082;5.066;2024-03-25T10:12:01;8.25;;;3.95;;
65759;SDS011;52496;51.082;5.066;2024-03-25T10:14:32;9.90;;;4.13;;
65759;SDS011;52496;51.082;5.066;2024-03-25T10:17:02;8.68;;;3.53;;
65759;SDS011;52496;51.082;5.066;2024-03-25T10:19:33;12.02;;;4.20;;
65759;SDS011;52496;51.082;5.066;2024-03-25T10:22:05;6.80;;;3.22;;
65759;SDS011;52496;51.082;5.066;2024-03-25T10:24:37;9.88;;;3.90;;
65759;SDS011;52496;51.082;5.066;2024-03-25T10:27:21;10.05;;;3.40;;
65759;SDS011;52496;51.082;5.066;2024-03-25T10:29:53;10.65;;;3.75;;
65759;SDS011;52496;51.082;5.066;2024-03-25T10:32:25;9.25;;;3.45;;
65759;SDS011;52496;51.082;5.066;2024-03-25T10:34:58;9.57;;;3.17;;
65759;SDS011;52496;51.082;5.066;2024-03-25T10:37:30;10.07;;;3.30;;
65759;SDS011;52496;51.082;5.066;2024-03-25T10:40:01;8.15;;;3.15;;
65759;SDS011;52496;51.082;5.066;2024-03-25T10:42:34;9.20;;;3.10;;
65759;SDS011;52496;51.082;5.066;2024-03-25T10:45:07;8.00;;;3.10;;
65759;SDS011;52496;51.082;5.066;2024-03-25T10:47:39;8.40;;;3.67;;
65759;SDS011;52496;51.082;5.066;2024-03-25T10:50:10;8.20;;;2.90;;
65759;SDS011;52496;51.082;5.066;2024-03-25T10:52:46;7.80;;;3.15;;
65759;SDS011;52496;51.082;5.066;2024-03-25T10:55:16;8.45;;;3.25;;
65759;SDS011;52496;51.082;5.066;2024-03-25T10:57:48;7.43;;;3.35;;
65759;SDS011;52496;51.082;5.066;2024-03-25T11:00:21;9.95;;;3.53;;
65759;SDS011;52496;51.082;5.066;2024-03-25T11:02:52;8.38;;;3.13;;
65759;SDS011;52496;51.082;5.066;2024-03-25T11:05:23;10.27;;;3.40;;
65759;SDS011;52496;51.082;5.066;2024-03-25T11:07:54;6.15;;;3.40;;
65759;SDS011;52496;51.082;5.066;2024-03-25T11:10:31;9.52;;;3.30;;
65759;SDS011;52496;51.082;5.066;2024-03-25T11:13:01;6.22;;;2.85;;
65759;SDS011;52496;51.082;5.066;2024-03-25T11:15:35;5.35;;;2.80;;
65759;SDS011;52496;51.082;5.066;2024-03-25T11:18:10;9.95;;;3.28;;
65759;SDS011;52496;51.082;5.066;2024-03-25T11:20:42;11.68;;;2.67;;
65759;SDS011;52496;51.082;5.066;2024-03-25T11:23:13;6.32;;;2.33;;
65759;SDS011;52496;51.082;5.066;2024-03-25T11:25:44;6.05;;;2.28;;
65759;SDS011;52496;51.082;5.066;2024-03-25T11:30:58;9.02;;;2.70;;
65759;SDS011;52496;51.082;5.066;2024-03-25T11:33:29;6.45;;;2.78;;
65759;SDS011;52496;51.082;5.066;2024-03-25T11:35:59;5.38;;;2.30;;
65759;SDS011;52496;51.082;5.066;2024-03-25T11:38:30;8.15;;;2.92;;
65759;SDS011;52496;51.082;5.066;2024-03-25T11:41:00;6.28;;;2.58;;
65759;SDS011;52496;51.082;5.066;2024-03-25T11:43:31;7.03;;;2.88;;
65759;SDS011;52496;51.082;5.066;2024-03-25T11:46:02;7.82;;;3.10;;
65759;SDS011;52496;51.082;5.066;2024-03-25T11:48:33;8.98;;;2.58;;
65759;SDS011;52496;51.082;5.066;2024-03-25T11:51:04;5.63;;;2.50;;
65759;SDS011;52496;51.082;5.066;2024-03-25T11:53:35;5.43;;;3.10;;
65759;SDS011;52496;51.082;5.066;2024-03-25T11:56:05;5.07;;;2.20;;
65759;SDS011;52496;51.082;5.066;2024-03-25T11:58:36;4.30;;;2.42;;
65759;SDS011;52496;51.082;5.066;2024-03-25T12:01:07;5.22;;;2.80;;
65759;SDS011;52496;51.082;5.066;2024-03-25T12:03:40;7.90;;;2.20;;
65759;SDS011;52496;51.082;5.066;2024-03-25T12:06:10;6.47;;;2.22;;
65759;SDS011;52496;51.082;5.066;2024-03-25T12:08:41;5.57;;;2.50;;
65759;SDS011;52496;51.082;5.066;2024-03-25T12:11:31;6.60;;;2.53;;
65759;SDS011;52496;51.082;5.066;2024-03-25T12:14:02;6.53;;;3.05;;
65759;SDS011;52496;51.082;5.066;2024-03-25T12:16:33;3.83;;;2.00;;
65759;SDS011;52496;51.082;5.066;2024-03-25T12:19:03;5.88;;;2.45;;
65759;SDS011;52496;51.082;5.066;2024-03-25T12:21:34;4.65;;;2.28;;
65759;SDS011;52496;51.082;5.066;2024-03-25T12:24:05;8.02;;;2.45;;
65759;SDS011;52496;51.082;5.066;2024-03-25T12:26:36;5.47;;;2.15;;
65759;SDS011;52496;51.082;5.066;2024-03-25T12:29:09;4.30;;;2.20;;
65759;SDS011;52496;51.082;5.066;2024-03-25T12:31:39;3.72;;;2.25;;
65759;SDS011;52496;51.082;5.066;2024-03-25T12:34:12;5.68;;;2.55;;
65759;SDS011;52496;51.082;5.066;2024-03-25T12:36:43;5.85;;;2.45;;
65759;SDS011;52496;51.082;5.066;2024-03-25T12:39:17;9.50;;;2.72;;
65759;SDS011;52496;51.082;5.066;2024-03-25T12:41:49;4.50;;;2.53;;
65759;SDS011;52496;51.082;5.066;2024-03-25T12:44:19;5.90;;;2.13;;
65759;SDS011;52496;51.082;5.066;2024-03-25T12:46:50;5.03;;;2.25;;
65759;SDS011;52496;51.082;5.066;2024-03-25T12:49:21;4.55;;;2.05;;
65759;SDS011;52496;51.082;5.066;2024-03-25T12:51:51;9.55;;;3.00;;
65759;SDS011;52496;51.082;5.066;2024-03-25T12:54:22;6.55;;;2.60;;
65759;SDS011;52496;51.082;5.066;2024-03-25T12:56:52;7.53;;;2.55;;
65759;SDS011;52496;51.082;5.066;2024-03-25T12:59:23;4.80;;;2.17;;
65759;SDS011;52496;51.082;5.066;2024-03-25T13:01:53;5.50;;;2.33;;
65759;SDS011;52496;51.082;5.066;2024-03-25T13:04:25;5.05;;;2.83;;
65759;SDS011;52496;51.082;5.066;2024-03-25T13:06:56;6.70;;;2.92;;
65759;SDS011;52496;51.082;5.066;2024-03-25T13:09:26;7.00;;;2.53;;
65759;SDS011;52496;51.082;5.066;2024-03-25T13:11:57;5.88;;;2.72;;
65759;SDS011;52496;51.082;5.066;2024-03-25T13:14:28;5.07;;;2.92;;
65759;SDS011;52496;51.082;5.066;2024-03-25T13:16:59;4.97;;;2.65;;
65759;SDS011;52496;51.082;5.066;2024-03-25T13:19:30;4.55;;;2.45;;
65759;SDS011;52496;51.082;5.066;2024-03-25T13:22:00;7.97;;;2.42;;
65759;SDS011;52496;51.082;5.066;2024-03-25T13:24:31;6.80;;;2.42;;
65759;SDS011;52496;51.082;5.066;2024-03-25T13:27:04;4.07;;;2.33;;
65759;SDS011;52496;51.082;5.066;2024-03-25T13:29:35;4.25;;;2.35;;
65759;SDS011;52496;51.082;5.066;2024-03-25T13:32:07;5.53;;;2.83;;
65759;SDS011;52496;51.082;5.066;2024-03-25T13:34:37;6.72;;;2.53;;
65759;SDS011;52496;51.082;5.066;2024-03-25T13:37:08;3.88;;;2.10;;
65759;SDS011;52496;51.082;5.066;2024-03-25T13:39:38;5.68;;;2.20;;
65759;SDS011;52496;51.082;5.066;2024-03-25T13:42:09;4.03;;;2.17;;
65759;SDS011;52496;51.082;5.066;2024-03-25T13:44:39;5.90;;;2.30;;
65759;SDS011;52496;51.082;5.066;2024-03-25T13:47:10;6.68;;;2.20;;
65759;SDS011;52496;51.082;5.066;2024-03-25T13:49:40;6.03;;;2.35;;
65759;SDS011;52496;51.082;5.066;2024-03-25T13:52:11;4.97;;;2.35;;
65759;SDS011;52496;51.082;5.066;2024-03-25T13:54:41;4.82;;;2.03;;
65759;SDS011;52496;51.082;5.066;2024-03-25T13:57:12;6.93;;;3.03;;
65759;SDS011;52496;51.082;5.066;2024-03-25T13:59:42;4.75;;;2.30;;
65759;SDS011;52496;51.082;5.066;2024-03-25T14:02:13;5.00;;;2.10;;
65759;SDS011;52496;51.082;5.066;2024-03-25T14:04:44;4.53;;;2.10;;
65759;SDS011;52496;51.082;5.066;2024-03-25T14:07:15;5.65;;;2.10;;
65759;SDS011;52496;51.082;5.066;2024-03-25T14:09:46;3.63;;;1.80;;
65759;SDS011;52496;51.082;5.066;2024-03-25T14:12:16;6.55;;;2.55;;
65759;SDS011;52496;51.082;5.066;2024-03-25T14:14:47;5.55;;;2.20;;
65759;SDS011;52496;51.082;5.066;2024-03-25T14:17:18;5.82;;;2.20;;
65759;SDS011;52496;51.082;5.066;2024-03-25T14:19:48;5.95;;;2.22;;
65759;SDS011;52496;51.082;5.066;2024-03-25T14:22:24;3.35;;;1.90;;
65759;SDS011;52496;51.082;5.066;2024-03-25T14:24:54;5.35;;;2.22;;
65759;SDS011;52496;51.082;5.066;2024-03-25T14:27:27;6.20;;;2.17;;
65759;SDS011;52496;51.082;5.066;2024-03-25T14:29:58;3.65;;;2.15;;
65759;SDS011;52496;51.082;5.066;2024-03-25T14:32:28;5.60;;;2.45;;
65759;SDS011;52496;51.082;5.066;2024-03-25T14:34:59;3.53;;;2.00;;
65759;SDS011;52496;51.082;5.066;2024-03-25T14:37:29;3.05;;;1.70;;
65759;SDS011;52496;51.082;5.066;2024-03-25T14:40:00;4.53;;;2.05;;
65759;SDS011;52496;51.082;5.066;2024-03-25T14:42:31;8.73;;;2.30;;
65759;SDS011;52496;51.082;5.066;2024-03-25T14:45:05;3.75;;;2.00;;
65759;SDS011;52496;51.082;5.066;2024-03-25T14:47:37;3.92;;;2.10;;
65759;SDS011;52496;51.082;5.066;2024-03-25T14:50:07;5.00;;;2.15;;
65759;SDS011;52496;51.082;5.066;2024-03-25T14:52:38;4.32;;;2.17;;
65759;SDS011;52496;51.082;5.066;2024-03-25T14:55:09;5.00;;;2.20;;
65759;SDS011;52496;51.082;5.066;2024-03-25T14:57:41;3.45;;;2.00;;
65759;SDS011;52496;51.082;5.066;2024-03-25T15:00:12;5.50;;;1.95;;
65759;SDS011;52496;51.082;5.066;2024-03-25T15:02:44;4.05;;;2.10;;
65759;SDS011;52496;51.082;5.066;2024-03-25T15:05:15;4.43;;;2.03;;